createdAt,value
2023-06-06T00:00:35.553Z,61.49
2023-06-06T00:01:35.586Z,61.52
2023-06-06T00:02:35.745Z,61.52
2023-06-06T00:03:35.922Z,61.61
2023-06-06T00:04:35.931Z,61.72
2023-06-06T00:05:35.988Z,61.82
2023-06-06T00:06:36.077Z,61.82
2023-06-06T00:07:36.124Z,61.72
2023-06-06T00:08:36.276Z,61.72
2023-06-06T00:09:36.281Z,61.72
2023-06-06T00:10:36.392Z,61.72
2023-06-06T00:11:36.472Z,61.72
2023-06-06T00:12:36.616Z,61.61
2023-06-06T00:13:36.658Z,61.41
2023-06-06T00:14:36.681Z,61.32
2023-06-06T00:15:36.781Z,61.32
2023-06-06T00:16:36.942Z,61.35
2023-06-06T00:17:37.048Z,61.35
2023-06-06T00:18:37.043Z,61.44
2023-06-06T00:19:37.090Z,61.55
2023-06-06T00:20:37.235Z,61.65
2023-06-06T00:21:37.387Z,61.65
2023-06-06T00:22:37.425Z,61.65
2023-06-06T00:23:37.561Z,61.55
2023-06-06T00:24:37.499Z,61.65
2023-06-06T00:25:37.720Z,61.65
2023-06-06T00:26:37.644Z,61.75
2023-06-06T00:27:37.791Z,61.75
2023-06-06T00:28:37.829Z,61.75
2023-06-06T00:29:37.883Z,61.75
2023-06-06T00:30:38.009Z,61.72
2023-06-06T00:31:38.097Z,61.61
2023-06-06T00:32:38.207Z,61.61
2023-06-06T00:33:38.270Z,61.52
2023-06-06T00:34:38.355Z,61.41
2023-06-06T00:35:38.426Z,61.41
2023-06-06T00:36:38.554Z,61.41
2023-06-06T00:37:38.553Z,61.32
2023-06-06T00:38:38.627Z,61.32
2023-06-06T00:39:38.680Z,61.32
2023-06-06T00:40:38.787Z,61.41
2023-06-06T00:41:38.885Z,61.32
2023-06-06T00:42:38.964Z,61.35
2023-06-06T00:43:39.054Z,61.35
2023-06-06T00:44:39.116Z,61.35
2023-06-06T00:45:39.270Z,61.35
2023-06-06T00:46:39.338Z,61.35
2023-06-06T00:47:39.382Z,61.35
2023-06-06T00:48:39.475Z,61.44
2023-06-06T00:49:39.546Z,61.55
2023-06-06T00:50:39.591Z,61.55
2023-06-06T00:51:39.657Z,61.55
2023-06-06T00:52:39.751Z,61.44
2023-06-06T00:53:39.900Z,61.44
2023-06-06T00:54:39.949Z,61.44
2023-06-06T00:55:40.025Z,61.44
2023-06-06T00:56:40.126Z,61.44
2023-06-06T00:57:40.175Z,61.35
2023-06-06T00:58:40.341Z,61.14
2023-06-06T00:59:40.374Z,61.04
2023-06-06T01:00:40.439Z,61.04
2023-06-06T01:01:40.578Z,60.97
2023-06-06T01:02:40.711Z,60.97
2023-06-06T01:03:40.855Z,60.97
2023-06-06T01:04:40.724Z,60.87
2023-06-06T01:05:40.809Z,60.97
2023-06-06T01:06:40.845Z,60.97
2023-06-06T01:07:40.936Z,61.07
2023-06-06T01:08:41.032Z,61.10
2023-06-06T01:09:41.089Z,61.20
2023-06-06T01:10:41.246Z,61.30
2023-06-06T01:11:41.265Z,61.40
2023-06-06T01:12:41.369Z,61.40
2023-06-06T01:13:41.441Z,61.51
2023-06-06T01:14:41.492Z,61.51
2023-06-06T01:15:41.644Z,61.60
2023-06-06T01:16:41.682Z,61.60
2023-06-06T01:17:41.775Z,61.60
2023-06-06T01:18:41.864Z,61.60
2023-06-06T01:19:41.904Z,61.71
2023-06-06T01:20:42.087Z,61.71
2023-06-06T01:21:42.065Z,61.80
2023-06-06T01:22:42.153Z,61.80
2023-06-06T01:23:42.255Z,61.71
2023-06-06T01:24:42.338Z,61.80
2023-06-06T01:25:42.410Z,61.91
2023-06-06T01:26:42.501Z,61.91
2023-06-06T01:27:42.582Z,61.91
2023-06-06T01:28:42.641Z,61.91
2023-06-06T01:29:42.731Z,61.91
2023-06-06T01:30:42.854Z,61.91
2023-06-06T01:31:42.981Z,61.91
2023-06-06T01:32:42.955Z,61.91
2023-06-06T01:33:43.070Z,61.91
2023-06-06T01:34:43.123Z,61.80
2023-06-06T01:35:43.205Z,61.80
2023-06-06T01:36:43.265Z,61.91
2023-06-06T01:37:43.401Z,61.91
2023-06-06T01:38:43.423Z,61.80
2023-06-06T01:39:43.502Z,61.71
2023-06-06T01:40:43.622Z,61.71
2023-06-06T01:41:43.668Z,61.71
2023-06-06T01:42:43.781Z,61.80
2023-06-06T01:43:43.851Z,61.80
2023-06-06T01:44:43.934Z,61.91
2023-06-06T01:45:44.044Z,61.91
2023-06-06T01:46:44.150Z,62.01
2023-06-06T01:47:44.231Z,62.01
2023-06-06T01:48:44.266Z,62.01
2023-06-06T01:49:44.329Z,62.01
2023-06-06T01:50:44.437Z,61.91
2023-06-06T01:51:44.494Z,61.91
2023-06-06T01:52:44.619Z,61.91
2023-06-06T01:53:44.657Z,62.01
2023-06-06T01:54:44.738Z,62.11
2023-06-06T01:55:44.864Z,62.11
2023-06-06T01:56:44.909Z,62.21
2023-06-06T01:57:45.005Z,62.21
2023-06-06T01:58:45.119Z,62.21
2023-06-06T01:59:45.170Z,62.11
2023-06-06T02:00:45.300Z,62.01
2023-06-06T02:01:45.313Z,62.01
2023-06-06T02:02:45.616Z,62.01
2023-06-06T02:03:45.506Z,62.01
2023-06-06T02:04:45.577Z,61.91
2023-06-06T02:05:45.630Z,61.91
2023-06-06T02:06:45.692Z,61.91
2023-06-06T02:07:45.750Z,61.91
2023-06-06T02:08:45.845Z,61.91
2023-06-06T02:09:45.910Z,61.91
2023-06-06T02:10:46.043Z,62.01
2023-06-06T02:11:46.091Z,61.91
2023-06-06T02:12:46.211Z,61.91
2023-06-06T02:13:46.264Z,61.91
2023-06-06T02:14:46.360Z,61.80
2023-06-06T02:15:46.469Z,61.71
2023-06-06T02:16:46.609Z,61.60
2023-06-06T02:17:46.653Z,61.63
2023-06-06T02:18:46.714Z,61.63
2023-06-06T02:19:46.758Z,61.53
2023-06-06T02:20:46.854Z,61.53
2023-06-06T02:21:46.921Z,61.53
2023-06-06T02:22:47.017Z,61.63
2023-06-06T02:23:47.148Z,61.63
2023-06-06T02:24:47.171Z,61.53
2023-06-06T02:25:47.285Z,61.53
2023-06-06T02:26:47.345Z,61.43
2023-06-06T02:27:47.423Z,61.43
2023-06-06T02:28:47.549Z,61.43
2023-06-06T02:29:47.598Z,61.43
2023-06-06T02:30:47.769Z,61.33
2023-06-06T02:31:47.770Z,61.33
2023-06-06T02:32:47.861Z,61.33
2023-06-06T02:33:47.912Z,61.43
2023-06-06T02:34:48.020Z,61.23
2023-06-06T02:35:48.111Z,61.13
2023-06-06T02:36:48.128Z,61.05
2023-06-06T02:37:48.228Z,60.96
2023-06-06T02:38:48.321Z,60.96
2023-06-06T02:39:48.433Z,61.05
2023-06-06T02:40:48.492Z,61.05
2023-06-06T02:41:48.563Z,61.16
2023-06-06T02:42:48.641Z,61.16
2023-06-06T02:43:48.701Z,61.25
2023-06-06T02:44:48.780Z,61.36
2023-06-06T02:45:48.989Z,61.36
2023-06-06T02:46:49.073Z,61.29
2023-06-06T02:47:49.117Z,61.25
2023-06-06T02:48:49.153Z,61.29
2023-06-06T02:49:49.246Z,61.29
2023-06-06T02:50:49.397Z,61.29
2023-06-06T02:51:49.450Z,61.29
2023-06-06T02:52:49.500Z,61.39
2023-06-06T02:53:49.586Z,61.39
2023-06-06T02:54:49.694Z,61.39
2023-06-06T02:55:49.796Z,61.39
2023-06-06T02:56:49.847Z,61.39
2023-06-06T02:57:49.902Z,61.39
2023-06-06T02:58:49.960Z,61.29
2023-06-06T02:59:50.066Z,61.08
2023-06-06T03:00:50.128Z,61.08
2023-06-06T03:01:50.336Z,61.08
2023-06-06T03:02:50.383Z,61.08
2023-06-06T03:03:50.476Z,61.19
2023-06-06T03:04:50.504Z,61.29
2023-06-06T03:05:50.591Z,61.29
2023-06-06T03:06:50.670Z,61.29
2023-06-06T03:07:50.708Z,61.29
2023-06-06T03:08:50.816Z,61.29
2023-06-06T03:09:50.873Z,61.29
2023-06-06T03:10:51.986Z,61.29
2023-06-06T03:11:51.026Z,61.29
2023-06-06T03:12:51.161Z,61.39
2023-06-06T03:13:51.313Z,61.29
2023-06-06T03:14:57.573Z,61.29
2023-06-06T03:15:51.453Z,61.19
2023-06-06T03:16:51.607Z,61.19
2023-06-06T03:17:51.557Z,61.19
2023-06-06T03:18:51.614Z,61.19
2023-06-06T03:19:51.700Z,61.19
2023-06-06T03:20:51.818Z,61.19
2023-06-06T03:21:51.884Z,61.08
2023-06-06T03:22:51.911Z,61.08
2023-06-06T03:23:56.085Z,60.98
2023-06-06T04:09:08.573Z,64.03
2023-06-06T04:10:08.394Z,64.00
2023-06-06T04:23:21.869Z,64.53
2023-06-06T04:24:22.546Z,64.64
2023-06-06T04:25:22.316Z,64.61
2023-06-06T04:26:22.356Z,64.70
2023-06-06T04:27:22.502Z,64.70
2023-06-06T04:28:22.499Z,64.70
2023-06-06T04:29:22.642Z,64.70
2023-06-06T04:30:22.695Z,64.67
2023-06-06T04:31:22.843Z,64.67
2023-06-06T04:32:22.776Z,64.67
2023-06-06T04:33:22.911Z,64.67
2023-06-06T04:34:23.008Z,64.78
2023-06-06T04:35:23.188Z,64.88
2023-06-06T04:36:23.173Z,64.88
2023-06-06T04:37:23.292Z,64.85
2023-06-06T04:38:23.445Z,64.85
2023-06-06T04:39:23.487Z,64.85
2023-06-06T04:40:23.551Z,64.85
2023-06-06T04:45:33.052Z,65.28
2023-06-06T04:46:34.209Z,65.39
2023-06-06T04:47:34.165Z,65.48
2023-06-06T05:57:32.585Z,71.47
2023-06-06T05:58:33.448Z,71.36
2023-06-06T05:59:33.290Z,71.36
2023-06-06T06:00:33.306Z,71.33
2023-06-06T06:01:33.354Z,71.33
2023-06-06T06:02:33.540Z,71.33
2023-06-06T06:03:33.587Z,71.44
2023-06-06T06:04:33.639Z,71.40
2023-06-06T06:05:33.656Z,71.40
2023-06-06T06:06:33.757Z,71.50
2023-06-06T06:07:33.880Z,71.50
2023-06-06T06:08:33.957Z,71.40
2023-06-06T06:16:14.099Z,71.50
2023-06-06T06:25:38.116Z,72.01
2023-06-06T06:29:24.690Z,72.92
2023-06-06T06:30:25.807Z,73.02
2023-06-06T06:31:25.858Z,73.12
2023-06-06T06:32:25.870Z,73.09
2023-06-06T06:33:25.921Z,73.29
2023-06-06T06:34:26.019Z,73.19
2023-06-06T06:35:26.080Z,72.96
2023-06-06T06:36:26.212Z,72.75
2023-06-06T07:01:30.943Z,72.52
2023-06-06T07:02:32.327Z,72.31
2023-06-06T07:05:20.360Z,71.91
2023-06-06T07:06:21.136Z,71.91
2023-06-06T07:07:21.216Z,71.80
2023-06-06T07:08:21.275Z,71.60
2023-06-06T07:09:21.343Z,71.26
2023-06-06T07:10:21.410Z,71.16
2023-06-06T07:15:58.544Z,71.37
2023-06-06T07:22:07.520Z,71.33
2023-06-06T07:23:09.398Z,71.44
2023-06-06T07:24:08.855Z,71.64
2023-06-06T07:25:08.618Z,71.70
2023-06-06T07:31:52.233Z,72.72
2023-06-06T07:32:36.292Z,72.81
2023-06-06T07:33:36.183Z,72.88
2023-06-06T07:34:36.221Z,72.99
2023-06-06T07:43:49.135Z,73.90
2023-06-06T07:44:50.111Z,74.30
2023-06-06T07:45:50.098Z,74.19
2023-06-06T07:46:50.212Z,73.79
2023-06-06T07:47:50.400Z,73.46
2023-06-06T07:48:50.296Z,73.15
2023-06-06T07:49:50.470Z,73.15
2023-06-06T07:50:50.520Z,73.15
2023-06-06T07:51:50.570Z,73.22
2023-06-06T07:52:50.688Z,73.11
2023-06-06T07:53:50.736Z,72.81
2023-06-06T07:54:50.809Z,72.41
2023-06-06T07:55:50.908Z,72.21
2023-06-06T07:56:51.066Z,71.97
2023-06-06T07:59:19.786Z,70.96
2023-06-06T08:00:20.738Z,70.46
2023-06-06T08:01:20.848Z,70.56
2023-06-06T08:02:20.739Z,70.76
2023-06-06T08:03:20.813Z,70.66
2023-06-06T08:05:36.221Z,70.46
2023-06-06T08:06:37.315Z,70.22
2023-06-06T08:07:37.273Z,70.22
2023-06-06T08:08:37.201Z,70.22
2023-06-06T08:09:37.327Z,70.32
2023-06-06T08:10:37.388Z,69.62
2023-06-06T08:11:37.450Z,69.11
2023-06-06T08:12:37.708Z,68.91
2023-06-06T08:13:37.692Z,68.48
2023-06-06T08:14:37.770Z,67.87
2023-06-06T08:15:37.799Z,67.47
2023-06-06T08:16:37.948Z,67.07
2023-06-06T08:17:38.077Z,66.96
2023-06-06T08:18:38.118Z,66.96
2023-06-06T08:19:38.186Z,67.16
2023-06-06T08:20:38.193Z,67.63
2023-06-06T08:21:38.286Z,67.33
2023-06-06T08:22:38.373Z,66.73
2023-06-06T08:23:38.425Z,66.33
2023-06-06T08:24:38.563Z,65.92
2023-06-06T08:25:38.548Z,65.42
2023-06-06T08:26:38.661Z,65.32
2023-06-06T08:27:38.704Z,65.52
2023-06-06T08:28:38.921Z,64.31
2023-06-06T08:29:38.838Z,64.07
2023-06-06T08:30:38.962Z,64.48
2023-06-06T08:31:39.072Z,64.58
2023-06-06T08:32:39.158Z,64.69
2023-06-06T08:33:39.168Z,64.07
2023-06-06T08:34:39.324Z,63.17
2023-06-06T08:35:39.309Z,62.97
2023-06-06T08:36:39.358Z,63.07
2023-06-06T08:45:22.698Z,64.58
2023-06-06T08:46:20.443Z,64.18
2023-06-06T08:47:19.360Z,63.98
2023-06-06T09:01:37.305Z,64.72
2023-06-06T09:02:38.348Z,64.51
2023-06-06T09:03:38.464Z,64.69
2023-06-06T09:04:38.401Z,64.89
2023-06-06T09:05:38.514Z,64.48
2023-06-06T09:06:38.629Z,64.18
2023-06-06T09:07:38.652Z,63.98
2023-06-06T09:08:38.714Z,63.65
2023-06-06T09:09:38.809Z,63.65
2023-06-06T09:10:38.947Z,63.04
2023-06-06T09:11:38.987Z,63.14
2023-06-06T09:12:39.070Z,63.34
2023-06-06T09:25:00.603Z,60.63
2023-06-06T09:26:01.679Z,60.22
2023-06-06T09:27:01.651Z,59.72
2023-06-06T09:28:01.764Z,59.11
2023-06-06T09:29:01.782Z,58.71
2023-06-06T09:30:01.981Z,57.90
2023-06-06T09:31:02.018Z,57.57
2023-06-06T09:32:02.113Z,57.37
2023-06-06T09:33:02.684Z,57.28
2023-06-06T09:34:02.461Z,57.48
2023-06-06T09:35:02.369Z,57.78
2023-06-06T09:36:02.451Z,58.38
2023-06-06T09:37:02.514Z,58.55
2023-06-06T09:38:02.657Z,57.85
2023-06-06T09:39:02.776Z,57.85
2023-06-06T09:40:02.881Z,58.05
2023-06-06T09:41:02.906Z,58.45
2023-06-06T09:42:02.956Z,58.95
2023-06-06T09:43:03.101Z,58.15
2023-06-06T09:44:03.126Z,56.64
2023-06-06T09:45:03.466Z,56.92
2023-06-06T09:46:03.437Z,57.22
2023-06-06T09:47:03.591Z,57.32
2023-06-06T09:48:03.951Z,57.62
2023-06-06T09:49:03.568Z,57.62
2023-06-06T09:50:03.866Z,57.82
2023-06-06T09:52:44.087Z,57.12
2023-06-06T09:53:45.258Z,56.62
2023-06-06T09:54:45.185Z,57.12
2023-06-06T09:55:45.092Z,57.52
2023-06-06T10:07:31.431Z,57.07
2023-06-06T10:08:32.485Z,57.28
2023-06-06T10:09:32.653Z,57.78
2023-06-06T10:10:32.789Z,57.68
2023-06-06T10:11:32.736Z,57.85
2023-06-06T10:12:32.962Z,57.24
2023-06-06T10:13:32.910Z,57.04
2023-06-06T10:14:32.988Z,56.44
2023-06-06T10:19:23.868Z,56.95
2023-06-06T10:20:24.113Z,57.35
2023-06-06T10:44:33.110Z,55.63
2023-06-06T10:53:05.998Z,56.84
2023-06-06T10:54:07.068Z,56.51
2023-06-06T11:00:44.753Z,56.51
2023-06-06T11:01:46.240Z,55.81
2023-06-06T11:46:07.954Z,53.05
2023-06-06T11:53:19.377Z,48.83
2023-06-06T11:54:20.207Z,48.90
2023-06-06T11:55:20.299Z,49.71
2023-06-06T11:56:20.267Z,50.51
2023-06-06T11:57:20.325Z,50.38
2023-06-06T11:58:20.423Z,50.38
2023-06-06T11:59:20.580Z,50.89
2023-06-06T12:13:55.472Z,50.16
2023-06-06T12:14:56.312Z,50.76
2023-06-06T12:22:20.473Z,50.76
2023-06-06T12:23:21.541Z,50.16
2023-06-06T12:24:21.606Z,50.26
2023-06-06T12:38:42.143Z,51.19
2023-06-06T12:39:43.211Z,50.99
2023-06-06T12:40:43.222Z,50.16
2023-06-06T12:41:43.135Z,50.06
2023-06-06T12:42:43.367Z,50.26
2023-06-06T12:43:43.442Z,50.66
2023-06-06T12:44:54.606Z,50.74
2023-06-06T12:45:43.732Z,51.44
2023-06-06T12:49:16.408Z,51.74
2023-06-06T12:50:17.512Z,51.94
2023-06-06T12:54:25.783Z,51.12
2023-06-06T12:55:26.956Z,51.42
2023-06-06T12:56:26.521Z,52.42
2023-06-06T12:57:26.629Z,51.99
2023-06-06T13:00:54.578Z,51.97
2023-06-06T13:01:55.352Z,51.97
2023-06-06T13:02:55.416Z,51.46
2023-06-06T13:03:55.432Z,50.37
2023-06-06T13:25:42.017Z,48.76
2023-06-06T13:31:22.263Z,48.08
2023-06-06T13:32:20.409Z,48.49
2023-06-06T13:46:39.623Z,48.54
2023-06-06T13:59:49.239Z,48.24
2023-06-06T14:40:09.576Z,50.32
2023-06-06T14:41:10.473Z,49.52
2023-06-06T14:53:24.052Z,47.99
2023-06-06T15:04:26.633Z,45.00
2023-06-06T15:50:33.929Z,45.31
2023-06-06T15:51:35.076Z,45.20
2023-06-06T16:00:31.494Z,46.12
2023-06-06T16:01:32.568Z,46.22
2023-06-06T16:09:47.599Z,47.02
2023-06-06T16:10:48.626Z,47.11
2023-06-06T16:11:48.889Z,47.42
2023-06-06T17:24:19.658Z,48.79
2023-06-06T17:25:20.420Z,48.36
2023-06-06T17:26:20.523Z,48.36
2023-06-06T17:27:20.699Z,48.16
2023-06-06T17:28:20.776Z,48.36
2023-06-06T17:29:20.825Z,48.46
2023-06-06T17:30:20.900Z,48.54
2023-06-06T17:31:21.258Z,48.54
2023-06-06T17:32:21.115Z,48.64
2023-06-06T17:33:21.175Z,48.64
2023-06-06T17:34:21.244Z,48.54
2023-06-06T17:35:21.366Z,48.34
2023-06-06T17:36:21.418Z,48.24
2023-06-06T17:37:21.483Z,48.11
2023-06-06T17:52:53.173Z,48.76
2023-06-06T17:53:54.174Z,48.96
2023-06-06T17:54:54.189Z,48.86
2023-06-06T17:55:54.186Z,48.66
2023-06-06T17:56:54.294Z,48.66
2023-06-06T17:57:54.372Z,48.76
2023-06-06T17:58:54.450Z,48.76
2023-06-06T17:59:55.876Z,48.76
2023-06-06T18:00:54.612Z,48.86
2023-06-06T18:01:54.789Z,48.96
2023-06-06T18:02:54.807Z,49.04
2023-06-06T18:03:58.344Z,49.04
2023-06-06T18:04:54.881Z,49.14
2023-06-06T18:05:54.969Z,49.34
2023-06-06T18:06:55.027Z,49.44
2023-06-06T18:07:55.108Z,49.44
2023-06-06T18:08:55.220Z,49.44
2023-06-06T18:09:55.301Z,49.54
2023-06-06T18:10:55.406Z,49.54
2023-06-06T18:11:55.437Z,49.64
2023-06-06T18:12:55.838Z,49.74
2023-06-06T18:13:55.590Z,49.84
2023-06-06T18:14:55.663Z,49.94
2023-06-06T18:15:55.755Z,49.64
2023-06-06T18:16:55.947Z,49.64
2023-06-06T18:17:56.078Z,49.74
2023-06-06T18:18:56.123Z,49.84
2023-06-06T18:19:56.072Z,49.74
2023-06-06T18:20:56.186Z,49.44
2023-06-06T18:21:56.300Z,49.44
2023-06-06T18:39:02.207Z,50.79
2023-06-06T18:40:03.355Z,50.79
2023-06-06T18:41:03.277Z,50.79
2023-06-06T18:42:03.299Z,50.79
2023-06-06T18:43:03.431Z,50.79
2023-06-06T18:44:03.572Z,50.79
2023-06-06T19:43:05.522Z,55.53
2023-06-06T19:44:06.492Z,55.51
2023-06-06T19:45:06.709Z,55.51
2023-06-06T19:46:06.640Z,55.60
2023-06-06T19:47:06.642Z,55.60
2023-06-06T19:48:06.778Z,55.60
2023-06-06T19:49:06.783Z,55.47
2023-06-06T19:50:07.003Z,55.47
2023-06-06T19:51:06.928Z,55.47
2023-06-06T19:52:07.059Z,55.47
2023-06-06T19:53:07.139Z,55.47
2023-06-06T19:54:07.209Z,55.58
2023-06-06T19:55:07.304Z,55.58
2023-06-06T19:56:07.471Z,55.58
2023-06-06T19:57:07.453Z,55.58
2023-06-06T19:58:07.537Z,55.58
2023-06-06T19:59:07.650Z,55.55
2023-06-06T20:00:07.742Z,55.55
2023-06-06T20:01:08.571Z,55.55
2023-06-06T20:02:07.837Z,55.55
2023-06-06T20:03:08.000Z,55.65
2023-06-06T20:15:56.728Z,56.51
2023-06-06T20:16:57.584Z,56.51
2023-06-06T20:17:57.740Z,56.61
2023-06-06T20:18:57.678Z,56.61
2023-06-06T20:19:57.743Z,56.61
2023-06-06T20:20:57.859Z,56.61
2023-06-06T20:21:57.965Z,56.61
2023-06-06T20:22:58.020Z,56.48
2023-06-06T20:23:58.161Z,56.48
2023-06-06T20:24:58.261Z,56.38
2023-06-06T20:25:58.346Z,56.38
2023-06-06T20:50:14.553Z,57.77
2023-06-06T20:51:15.355Z,57.67
2023-06-06T20:52:15.415Z,57.77
2023-06-06T20:53:15.578Z,57.77
2023-06-06T20:54:15.650Z,57.87
2023-06-06T20:55:15.676Z,57.77
2023-06-06T20:56:15.735Z,57.77
2023-06-06T20:57:15.778Z,57.77
2023-06-06T20:58:15.793Z,57.67
2023-06-06T20:59:15.868Z,57.64
2023-06-06T21:00:15.977Z,57.64
2023-06-06T21:01:16.763Z,57.64
2023-06-06T21:02:16.971Z,57.64
2023-06-06T21:03:16.412Z,57.54
2023-06-06T21:04:16.381Z,57.54
2023-06-06T21:05:16.950Z,57.44
2023-06-06T21:06:16.521Z,57.34
2023-06-06T21:07:16.562Z,57.34
2023-06-06T21:08:16.665Z,57.34
2023-06-06T21:09:16.829Z,57.34
2023-06-06T21:10:16.874Z,57.34
2023-06-06T21:11:16.950Z,57.24
2023-06-06T21:12:17.043Z,57.24
2023-06-06T21:13:17.148Z,57.14
2023-06-06T21:14:17.219Z,57.14
2023-06-06T21:15:17.265Z,57.14
2023-06-06T21:16:17.435Z,57.14
2023-06-06T21:17:17.414Z,57.14
2023-06-06T21:18:17.530Z,57.24
2023-06-06T21:19:17.603Z,57.14
2023-06-06T21:20:17.722Z,57.04
2023-06-06T21:21:17.797Z,56.93
2023-06-06T21:22:17.920Z,56.93
2023-06-06T21:23:17.974Z,56.93
2023-06-06T21:24:18.157Z,57.04
2023-06-06T21:25:18.118Z,57.14
2023-06-06T21:26:18.230Z,57.24
2023-06-06T21:27:18.242Z,57.34
2023-06-06T21:28:18.380Z,57.34
2023-06-06T21:29:18.457Z,57.34
2023-06-06T21:30:18.547Z,57.34
2023-06-06T21:31:18.659Z,57.44
2023-06-06T21:32:18.720Z,57.44
2023-06-06T21:33:18.841Z,57.44
2023-06-06T21:34:18.868Z,57.44
2023-06-06T21:35:18.933Z,57.44
2023-06-06T21:36:19.040Z,57.44
2023-06-06T21:37:19.069Z,57.44
2023-06-06T21:38:19.152Z,57.46
2023-06-06T21:39:19.254Z,57.46
2023-06-06T21:40:19.358Z,57.46
2023-06-06T21:41:19.470Z,57.46
2023-06-06T21:42:19.518Z,57.46
2023-06-06T21:43:19.601Z,57.57
2023-06-06T21:44:19.620Z,57.57
2023-06-06T21:45:19.766Z,57.57
2023-06-06T21:46:19.969Z,57.57
2023-06-06T21:47:19.924Z,57.67
2023-06-06T21:48:20.009Z,57.67
2023-06-06T21:49:20.088Z,57.67
2023-06-06T21:50:20.150Z,57.57
2023-06-06T21:51:20.273Z,57.67
2023-06-06T21:52:20.329Z,57.67
2023-06-06T21:53:20.405Z,57.57
2023-06-06T21:54:20.528Z,57.57
2023-06-06T21:55:20.575Z,57.57
2023-06-06T21:56:20.735Z,57.67
2023-06-06T21:57:20.789Z,57.77
2023-06-06T21:58:20.938Z,57.77
2023-06-06T21:59:20.893Z,57.77
2023-06-06T22:00:21.008Z,57.87
2023-06-06T22:01:21.081Z,57.87
2023-06-06T22:02:21.167Z,57.87
2023-06-06T22:03:21.326Z,58.00
2023-06-06T22:04:21.439Z,57.97
2023-06-06T22:05:21.392Z,58.07
2023-06-06T22:06:21.496Z,58.07
2023-06-06T22:07:21.542Z,58.09
2023-06-06T22:08:21.646Z,58.00
2023-06-06T22:09:21.735Z,58.00
2023-06-06T22:10:21.823Z,58.00
2023-06-06T22:11:21.895Z,58.00
2023-06-06T22:12:21.917Z,58.00
2023-06-06T22:13:22.018Z,58.00
2023-06-06T22:14:22.158Z,58.09
2023-06-06T22:15:22.216Z,58.09
2023-06-06T22:16:22.353Z,58.09
2023-06-06T22:17:22.391Z,58.09
2023-06-06T22:18:22.537Z,58.09
2023-06-06T22:19:22.609Z,58.09
2023-06-06T22:20:22.611Z,58.09
2023-06-06T22:21:22.725Z,58.20
2023-06-06T22:22:22.751Z,58.09
2023-06-06T22:23:22.870Z,58.00
2023-06-06T22:24:23.121Z,58.09
2023-06-06T22:25:23.093Z,58.09
2023-06-06T22:26:23.253Z,58.00
2023-06-06T22:27:23.165Z,58.09
2023-06-06T22:28:23.358Z,58.09
2023-06-06T22:29:23.379Z,58.12
2023-06-06T22:30:23.513Z,58.12
2023-06-06T22:31:23.552Z,58.12
2023-06-06T22:32:23.632Z,58.22
2023-06-06T22:33:23.761Z,58.33
2023-06-06T22:34:23.739Z,58.33
2023-06-06T22:35:23.809Z,58.42
2023-06-06T22:36:23.924Z,58.42
2023-06-06T22:37:23.948Z,58.42
2023-06-06T22:38:24.046Z,58.42
2023-06-06T22:39:24.098Z,58.33
2023-06-06T22:40:24.169Z,58.33
2023-06-06T22:41:24.290Z,58.33
2023-06-06T22:42:24.332Z,58.42
2023-06-06T22:43:24.416Z,58.42
2023-06-06T22:44:24.491Z,58.42
2023-06-06T22:45:24.579Z,58.55
2023-06-06T22:46:24.733Z,58.45
2023-06-06T22:47:24.785Z,58.45
2023-06-06T22:48:24.876Z,58.45
2023-06-06T22:49:24.933Z,58.45
2023-06-06T22:50:24.993Z,58.45
2023-06-06T22:51:25.131Z,58.55
2023-06-06T22:52:25.149Z,58.55
2023-06-06T22:53:25.231Z,58.55
2023-06-06T22:54:25.318Z,58.55
2023-06-06T22:55:25.412Z,58.55
2023-06-06T22:56:25.472Z,58.58
2023-06-06T22:57:25.555Z,58.58
2023-06-06T22:58:25.622Z,58.68
2023-06-06T22:59:25.752Z,58.78
2023-06-06T23:00:25.769Z,58.78
2023-06-06T23:01:25.934Z,58.88
2023-06-06T23:02:25.980Z,58.88
2023-06-06T23:03:26.177Z,58.88
2023-06-06T23:04:26.086Z,58.88
2023-06-06T23:05:26.178Z,58.88
2023-06-06T23:06:26.259Z,58.98
2023-06-06T23:07:26.344Z,58.98
2023-06-06T23:08:26.460Z,58.78
2023-06-06T23:09:26.534Z,58.68
2023-06-06T23:10:26.558Z,58.68
2023-06-06T23:11:26.840Z,58.68
2023-06-06T23:12:26.741Z,58.78
2023-06-06T23:13:26.861Z,58.78
2023-06-06T23:14:26.939Z,58.78
2023-06-06T23:15:26.992Z,58.78
2023-06-06T23:16:27.201Z,58.68
2023-06-06T23:17:27.172Z,58.68
2023-06-06T23:18:27.205Z,58.58
2023-06-06T23:19:27.288Z,58.68
2023-06-06T23:20:27.362Z,58.58
2023-06-06T23:21:27.461Z,58.58
2023-06-06T23:22:41.060Z,58.58
2023-06-06T23:23:27.648Z,58.38
2023-06-06T23:24:27.709Z,58.38
2023-06-06T23:25:27.780Z,58.41
2023-06-06T23:26:27.859Z,58.31
2023-06-06T23:27:27.944Z,58.31
2023-06-06T23:28:27.995Z,58.41
2023-06-06T23:29:28.105Z,58.51
2023-06-06T23:30:28.135Z,58.51
2023-06-06T23:31:28.304Z,58.61
2023-06-06T23:32:28.619Z,58.61
2023-06-06T23:33:28.396Z,58.71
2023-06-06T23:34:28.432Z,58.71
2023-06-06T23:35:28.522Z,58.71
2023-06-06T23:36:28.653Z,58.61
2023-06-06T23:37:28.717Z,58.51
2023-06-06T23:38:28.771Z,58.61
2023-06-06T23:39:28.907Z,58.61
2023-06-06T23:40:28.972Z,58.74
2023-06-06T23:41:29.061Z,58.74
2023-06-06T23:42:29.116Z,58.74
2023-06-06T23:43:29.239Z,58.84
2023-06-06T23:44:29.318Z,58.94
2023-06-06T23:45:29.409Z,58.94
2023-06-06T23:46:29.566Z,59.04
2023-06-06T23:47:29.596Z,58.94
2023-06-06T23:48:29.644Z,59.04
2023-06-06T23:49:29.723Z,59.04
2023-06-06T23:50:29.904Z,59.04
2023-06-06T23:51:29.949Z,58.84
2023-06-06T23:52:29.987Z,58.74
2023-06-06T23:53:30.076Z,58.64
2023-06-06T23:54:30.141Z,58.64
2023-06-06T23:55:30.222Z,58.74
2023-06-06T23:56:30.368Z,58.84
2023-06-06T23:57:30.402Z,58.94
2023-06-06T23:58:30.457Z,58.84
2023-06-06T23:59:30.525Z,58.87
